sensor_id;sensor_type;location;lat;lon;timestamp;temperature;humidity
20735;DHT22;10528;52.124;5.196;2022-10-17T00:00:43;14.60;99.90
20735;DHT22;10528;52.124;5.196;2022-10-17T00:03:12;14.60;99.90
20735;DHT22;10528;52.124;5.196;2022-10-17T00:05:40;14.70;99.90
20735;DHT22;10528;52.124;5.196;2022-10-17T00:08:10;14.60;99.90
20735;DHT22;10528;52.124;5.196;2022-10-17T00:10:38;14.60;99.90
20735;DHT22;10528;52.124;5.196;2022-10-17T00:13:06;14.60;99.90
20735;DHT22;10528;52.124;5.196;2022-10-17T00:15:34;14.60;99.90
20735;DHT22;10528;52.124;5.196;2022-10-17T00:18:01;14.60;99.90
20735;DHT22;10528;52.124;5.196;2022-10-17T00:20:28;14.60;99.90
20735;DHT22;10528;52.124;5.196;2022-10-17T00:22:56;14.60;99.90
20735;DHT22;10528;52.124;5.196;2022-10-17T00:25:23;14.60;99.90
20735;DHT22;10528;52.124;5.196;2022-10-17T00:27:49;14.60;99.90
20735;DHT22;10528;52.124;5.196;2022-10-17T00:30:16;14.60;99.90
20735;DHT22;10528;52.124;5.196;2022-10-17T00:32:43;14.60;99.90
20735;DHT22;10528;52.124;5.196;2022-10-17T00:35:10;14.50;99.90
20735;DHT22;10528;52.124;5.196;2022-10-17T00:37:37;14.60;99.90
20735;DHT22;10528;52.124;5.196;2022-10-17T00:40:05;14.60;99.90
20735;DHT22;10528;52.124;5.196;2022-10-17T00:42:33;14.60;99.90
20735;DHT22;10528;52.124;5.196;2022-10-17T00:45:06;14.70;99.90
20735;DHT22;10528;52.124;5.196;2022-10-17T00:47:35;14.60;99.90
20735;DHT22;10528;52.124;5.196;2022-10-17T00:50:04;14.70;99.90
20735;DHT22;10528;52.124;5.196;2022-10-17T00:52:32;14.60;99.90
20735;DHT22;10528;52.124;5.196;2022-10-17T00:55:15;14.60;99.90
20735;DHT22;10528;52.124;5.196;2022-10-17T00:57:46;14.60;99.90
20735;DHT22;10528;52.124;5.196;2022-10-17T01:00:14;14.60;99.90
20735;DHT22;10528;52.124;5.196;2022-10-17T01:02:42;14.60;99.90
20735;DHT22;10528;52.124;5.196;2022-10-17T01:05:09;14.60;99.90
20735;DHT22;10528;52.124;5.196;2022-10-17T01:07:38;14.70;99.90
20735;DHT22;10528;52.124;5.196;2022-10-17T01:10:07;14.70;99.90
20735;DHT22;10528;52.124;5.196;2022-10-17T01:15:26;14.70;99.90
20735;DHT22;10528;52.124;5.196;2022-10-17T01:21:38;14.70;99.90
20735;DHT22;10528;52.124;5.196;2022-10-17T01:30:55;14.70;99.90
20735;DHT22;10528;52.124;5.196;2022-10-17T01:45:12;14.80;99.90
20735;DHT22;10528;52.124;5.196;2022-10-17T01:47:46;14.90;99.90
20735;DHT22;10528;52.124;5.196;2022-10-17T01:50:24;14.90;99.90
20735;DHT22;10528;52.124;5.196;2022-10-17T01:53:01;14.90;99.90
20735;DHT22;10528;52.124;5.196;2022-10-17T01:55:39;14.90;99.90
20735;DHT22;10528;52.124;5.196;2022-10-17T01:58:27;14.90;99.90
20735;DHT22;10528;52.124;5.196;2022-10-17T02:01:00;14.90;99.90
20735;DHT22;10528;52.124;5.196;2022-10-17T02:03:31;14.90;99.90
20735;DHT22;10528;52.124;5.196;2022-10-17T02:06:00;14.90;99.90
20735;DHT22;10528;52.124;5.196;2022-10-17T02:08:39;14.90;99.90
20735;DHT22;10528;52.124;5.196;2022-10-17T02:19:44;15.00;99.90
20735;DHT22;10528;52.124;5.196;2022-10-17T02:25:32;15.00;99.90
20735;DHT22;10528;52.124;5.196;2022-10-17T02:28:51;15.00;99.90
20735;DHT22;10528;52.124;5.196;2022-10-17T02:31:44;15.00;99.90
20735;DHT22;10528;52.124;5.196;2022-10-17T02:37:10;15.10;99.90
20735;DHT22;10528;52.124;5.196;2022-10-17T02:39:42;15.10;99.90
20735;DHT22;10528;52.124;5.196;2022-10-17T02:42:12;15.10;99.90
20735;DHT22;10528;52.124;5.196;2022-10-17T02:44:42;15.10;99.90
20735;DHT22;10528;52.124;5.196;2022-10-17T02:47:27;15.10;99.90
20735;DHT22;10528;52.124;5.196;2022-10-17T02:50:02;15.10;99.90
20735;DHT22;10528;52.124;5.196;2022-10-17T02:52:55;15.20;99.90
20735;DHT22;10528;52.124;5.196;2022-10-17T02:55:28;15.20;99.90
20735;DHT22;10528;52.124;5.196;2022-10-17T02:58:03;15.10;99.90
20735;DHT22;10528;52.124;5.196;2022-10-17T03:00:38;15.10;99.90
20735;DHT22;10528;52.124;5.196;2022-10-17T03:03:25;15.20;99.90
20735;DHT22;10528;52.124;5.196;2022-10-17T03:06:00;15.20;99.90
20735;DHT22;10528;52.124;5.196;2022-10-17T03:08:27;15.20;99.90
20735;DHT22;10528;52.124;5.196;2022-10-17T03:10:54;15.20;99.90
20735;DHT22;10528;52.124;5.196;2022-10-17T03:13:22;15.20;99.90
20735;DHT22;10528;52.124;5.196;2022-10-17T03:15:49;15.30;99.90
20735;DHT22;10528;52.124;5.196;2022-10-17T03:18:15;15.30;99.90
20735;DHT22;10528;52.124;5.196;2022-10-17T03:20:43;15.30;99.90
20735;DHT22;10528;52.124;5.196;2022-10-17T03:23:10;15.30;99.90
20735;DHT22;10528;52.124;5.196;2022-10-17T03:25:37;15.30;99.90
20735;DHT22;10528;52.124;5.196;2022-10-17T03:28:04;15.40;99.90
20735;DHT22;10528;52.124;5.196;2022-10-17T03:30:32;15.40;99.90
20735;DHT22;10528;52.124;5.196;2022-10-17T03:32:59;15.40;99.90
20735;DHT22;10528;52.124;5.196;2022-10-17T03:35:26;15.40;99.90
20735;DHT22;10528;52.124;5.196;2022-10-17T03:37:54;15.50;99.90
20735;DHT22;10528;52.124;5.196;2022-10-17T03:40:23;15.50;99.90
20735;DHT22;10528;52.124;5.196;2022-10-17T03:42:50;15.50;99.90
20735;DHT22;10528;52.124;5.196;2022-10-17T03:45:17;15.50;99.90
20735;DHT22;10528;52.124;5.196;2022-10-17T03:47:44;15.50;99.90
20735;DHT22;10528;52.124;5.196;2022-10-17T03:50:11;15.60;99.90
20735;DHT22;10528;52.124;5.196;2022-10-17T03:52:39;15.60;99.90
20735;DHT22;10528;52.124;5.196;2022-10-17T03:55:07;15.60;99.90
20735;DHT22;10528;52.124;5.196;2022-10-17T03:57:34;15.60;99.90
20735;DHT22;10528;52.124;5.196;2022-10-17T04:00:04;15.60;99.90
20735;DHT22;10528;52.124;5.196;2022-10-17T04:02:39;15.60;99.90
20735;DHT22;10528;52.124;5.196;2022-10-17T04:05:10;15.60;99.90
20735;DHT22;10528;52.124;5.196;2022-10-17T04:07:36;15.60;99.90
20735;DHT22;10528;52.124;5.196;2022-10-17T04:10:04;15.60;99.90
20735;DHT22;10528;52.124;5.196;2022-10-17T04:12:32;15.60;99.90
20735;DHT22;10528;52.124;5.196;2022-10-17T04:14:59;15.60;99.90
20735;DHT22;10528;52.124;5.196;2022-10-17T04:17:28;15.60;99.90
20735;DHT22;10528;52.124;5.196;2022-10-17T04:20:04;15.60;99.90
20735;DHT22;10528;52.124;5.196;2022-10-17T04:22:31;15.60;99.90
20735;DHT22;10528;52.124;5.196;2022-10-17T04:24:58;15.60;99.90
20735;DHT22;10528;52.124;5.196;2022-10-17T04:27:45;15.60;99.90
20735;DHT22;10528;52.124;5.196;2022-10-17T04:30:12;15.50;99.90
20735;DHT22;10528;52.124;5.196;2022-10-17T04:32:40;15.50;99.90
20735;DHT22;10528;52.124;5.196;2022-10-17T04:35:13;15.50;99.90
20735;DHT22;10528;52.124;5.196;2022-10-17T04:37:44;15.60;99.90
20735;DHT22;10528;52.124;5.196;2022-10-17T04:40:16;15.60;99.90
20735;DHT22;10528;52.124;5.196;2022-10-17T04:42:43;15.60;99.90
20735;DHT22;10528;52.124;5.196;2022-10-17T04:45:13;15.60;99.90
20735;DHT22;10528;52.124;5.196;2022-10-17T04:47:41;15.60;99.90
20735;DHT22;10528;52.124;5.196;2022-10-17T04:50:08;15.60;99.90
20735;DHT22;10528;52.124;5.196;2022-10-17T04:52:35;15.60;99.90
20735;DHT22;10528;52.124;5.196;2022-10-17T04:55:06;15.60;99.90
20735;DHT22;10528;52.124;5.196;2022-10-17T04:57:34;15.70;99.90
20735;DHT22;10528;52.124;5.196;2022-10-17T05:00:08;15.70;99.90
20735;DHT22;10528;52.124;5.196;2022-10-17T05:02:50;15.70;99.90
20735;DHT22;10528;52.124;5.196;2022-10-17T05:05:17;15.70;99.90
20735;DHT22;10528;52.124;5.196;2022-10-17T05:07:45;15.70;99.90
20735;DHT22;10528;52.124;5.196;2022-10-17T05:10:17;15.70;99.90
20735;DHT22;10528;52.124;5.196;2022-10-17T05:12:47;15.70;99.90
20735;DHT22;10528;52.124;5.196;2022-10-17T05:15:16;15.70;99.90
20735;DHT22;10528;52.124;5.196;2022-10-17T05:17:43;15.70;99.90
20735;DHT22;10528;52.124;5.196;2022-10-17T05:20:10;15.70;99.90
20735;DHT22;10528;52.124;5.196;2022-10-17T05:22:38;15.70;99.90
20735;DHT22;10528;52.124;5.196;2022-10-17T05:25:09;15.70;99.90
20735;DHT22;10528;52.124;5.196;2022-10-17T05:27:35;15.70;99.90
20735;DHT22;10528;52.124;5.196;2022-10-17T05:30:04;15.70;99.90
20735;DHT22;10528;52.124;5.196;2022-10-17T05:32:33;15.70;99.90
20735;DHT22;10528;52.124;5.196;2022-10-17T05:35:00;15.70;99.90
20735;DHT22;10528;52.124;5.196;2022-10-17T05:37:28;15.80;99.90
20735;DHT22;10528;52.124;5.196;2022-10-17T05:39:56;15.80;99.90
20735;DHT22;10528;52.124;5.196;2022-10-17T05:42:24;15.80;99.90
20735;DHT22;10528;52.124;5.196;2022-10-17T05:44:51;15.90;99.90
20735;DHT22;10528;52.124;5.196;2022-10-17T05:47:18;15.90;99.90
20735;DHT22;10528;52.124;5.196;2022-10-17T05:49:45;15.90;99.90
20735;DHT22;10528;52.124;5.196;2022-10-17T05:52:22;15.90;99.90
20735;DHT22;10528;52.124;5.196;2022-10-17T05:55:00;15.90;99.90
20735;DHT22;10528;52.124;5.196;2022-10-17T05:57:27;15.90;99.90
20735;DHT22;10528;52.124;5.196;2022-10-17T05:59:55;15.90;99.90
20735;DHT22;10528;52.124;5.196;2022-10-17T06:02:22;15.90;99.90
20735;DHT22;10528;52.124;5.196;2022-10-17T06:04:49;16.00;99.90
20735;DHT22;10528;52.124;5.196;2022-10-17T06:07:18;15.90;99.90
20735;DHT22;10528;52.124;5.196;2022-10-17T06:09:46;16.00;99.90
20735;DHT22;10528;52.124;5.196;2022-10-17T06:12:13;15.90;99.90
20735;DHT22;10528;52.124;5.196;2022-10-17T06:14:40;16.00;99.90
20735;DHT22;10528;52.124;5.196;2022-10-17T06:17:07;16.00;99.90
20735;DHT22;10528;52.124;5.196;2022-10-17T06:19:42;16.00;99.90
20735;DHT22;10528;52.124;5.196;2022-10-17T06:22:12;16.00;99.90
20735;DHT22;10528;52.124;5.196;2022-10-17T06:24:40;16.00;99.90
20735;DHT22;10528;52.124;5.196;2022-10-17T06:27:07;16.00;99.90
20735;DHT22;10528;52.124;5.196;2022-10-17T06:29:37;16.00;99.90
20735;DHT22;10528;52.124;5.196;2022-10-17T06:32:06;16.00;99.90
20735;DHT22;10528;52.124;5.196;2022-10-17T06:34:38;16.00;99.90
20735;DHT22;10528;52.124;5.196;2022-10-17T06:37:05;16.00;99.90
20735;DHT22;10528;52.124;5.196;2022-10-17T06:39:34;16.10;99.90
20735;DHT22;10528;52.124;5.196;2022-10-17T06:42:06;16.00;99.90
20735;DHT22;10528;52.124;5.196;2022-10-17T06:44:56;16.10;99.90
20735;DHT22;10528;52.124;5.196;2022-10-17T06:47:39;16.10;99.90
20735;DHT22;10528;52.124;5.196;2022-10-17T06:50:36;16.10;99.90
20735;DHT22;10528;52.124;5.196;2022-10-17T06:53:16;16.10;99.90
20735;DHT22;10528;52.124;5.196;2022-10-17T06:56:08;16.10;99.90
20735;DHT22;10528;52.124;5.196;2022-10-17T06:58:44;16.10;99.90
20735;DHT22;10528;52.124;5.196;2022-10-17T07:01:22;16.20;99.90
20735;DHT22;10528;52.124;5.196;2022-10-17T07:03:53;16.20;99.90
20735;DHT22;10528;52.124;5.196;2022-10-17T07:06:21;16.20;99.90
20735;DHT22;10528;52.124;5.196;2022-10-17T07:08:50;16.20;99.90
20735;DHT22;10528;52.124;5.196;2022-10-17T07:11:19;16.20;99.90
20735;DHT22;10528;52.124;5.196;2022-10-17T07:13:50;16.20;99.90
20735;DHT22;10528;52.124;5.196;2022-10-17T07:16:17;16.20;99.90
20735;DHT22;10528;52.124;5.196;2022-10-17T07:18:49;16.20;99.90
20735;DHT22;10528;52.124;5.196;2022-10-17T07:21:17;16.20;99.90
20735;DHT22;10528;52.124;5.196;2022-10-17T07:23:45;16.20;99.90
20735;DHT22;10528;52.124;5.196;2022-10-17T07:26:14;16.20;99.90
20735;DHT22;10528;52.124;5.196;2022-10-17T07:28:43;16.20;99.90
20735;DHT22;10528;52.124;5.196;2022-10-17T07:31:32;16.20;99.90
20735;DHT22;10528;52.124;5.196;2022-10-17T07:33:59;16.20;99.90
20735;DHT22;10528;52.124;5.196;2022-10-17T07:36:27;16.30;99.90
20735;DHT22;10528;52.124;5.196;2022-10-17T07:38:55;16.30;99.90
20735;DHT22;10528;52.124;5.196;2022-10-17T07:41:23;16.30;99.90
20735;DHT22;10528;52.124;5.196;2022-10-17T07:43:50;16.30;99.90
20735;DHT22;10528;52.124;5.196;2022-10-17T07:46:22;16.30;99.90
20735;DHT22;10528;52.124;5.196;2022-10-17T07:48:48;16.30;99.90
20735;DHT22;10528;52.124;5.196;2022-10-17T07:51:16;16.30;99.90
20735;DHT22;10528;52.124;5.196;2022-10-17T07:53:43;16.30;99.90
20735;DHT22;10528;52.124;5.196;2022-10-17T07:56:14;16.30;99.90
20735;DHT22;10528;52.124;5.196;2022-10-17T07:58:41;16.30;99.90
20735;DHT22;10528;52.124;5.196;2022-10-17T08:01:09;16.30;99.90
20735;DHT22;10528;52.124;5.196;2022-10-17T08:03:42;16.30;99.90
20735;DHT22;10528;52.124;5.196;2022-10-17T08:06:11;16.40;99.90
20735;DHT22;10528;52.124;5.196;2022-10-17T08:08:38;16.40;99.90
20735;DHT22;10528;52.124;5.196;2022-10-17T08:11:08;16.50;99.90
20735;DHT22;10528;52.124;5.196;2022-10-17T08:13:37;16.50;99.90
20735;DHT22;10528;52.124;5.196;2022-10-17T08:16:08;16.50;99.90
20735;DHT22;10528;52.124;5.196;2022-10-17T08:18:38;16.60;99.90
20735;DHT22;10528;52.124;5.196;2022-10-17T08:21:06;16.60;99.90
20735;DHT22;10528;52.124;5.196;2022-10-17T08:23:34;16.60;99.90
20735;DHT22;10528;52.124;5.196;2022-10-17T08:26:04;16.60;99.90
20735;DHT22;10528;52.124;5.196;2022-10-17T08:28:34;16.60;99.90
20735;DHT22;10528;52.124;5.196;2022-10-17T08:31:05;16.60;99.90
20735;DHT22;10528;52.124;5.196;2022-10-17T08:33:37;16.60;99.90
20735;DHT22;10528;52.124;5.196;2022-10-17T08:36:05;16.60;99.90
20735;DHT22;10528;52.124;5.196;2022-10-17T08:38:33;16.60;99.90
20735;DHT22;10528;52.124;5.196;2022-10-17T08:41:09;16.70;99.90
20735;DHT22;10528;52.124;5.196;2022-10-17T08:43:57;16.70;99.90
20735;DHT22;10528;52.124;5.196;2022-10-17T08:46:40;16.70;99.90
20735;DHT22;10528;52.124;5.196;2022-10-17T08:49:29;16.70;99.90
20735;DHT22;10528;52.124;5.196;2022-10-17T08:52:32;16.70;99.90
20735;DHT22;10528;52.124;5.196;2022-10-17T08:55:28;16.70;99.90
20735;DHT22;10528;52.124;5.196;2022-10-17T08:58:18;16.80;99.90
20735;DHT22;10528;52.124;5.196;2022-10-17T09:01:25;16.80;99.90
20735;DHT22;10528;52.124;5.196;2022-10-17T09:07:04;16.80;99.90
20735;DHT22;10528;52.124;5.196;2022-10-17T09:13:01;16.80;99.90
20735;DHT22;10528;52.124;5.196;2022-10-17T09:18:40;16.90;99.90
20735;DHT22;10528;52.124;5.196;2022-10-17T09:21:30;16.90;99.90
20735;DHT22;10528;52.124;5.196;2022-10-17T09:24:11;16.90;99.90
20735;DHT22;10528;52.124;5.196;2022-10-17T09:26:45;16.90;99.90
20735;DHT22;10528;52.124;5.196;2022-10-17T09:29:23;16.90;99.90
20735;DHT22;10528;52.124;5.196;2022-10-17T09:32:13;16.90;99.90
20735;DHT22;10528;52.124;5.196;2022-10-17T09:34:44;16.90;99.90
20735;DHT22;10528;52.124;5.196;2022-10-17T09:37:15;17.00;99.90
20735;DHT22;10528;52.124;5.196;2022-10-17T09:39:43;16.90;99.90
20735;DHT22;10528;52.124;5.196;2022-10-17T09:42:16;16.90;99.90
20735;DHT22;10528;52.124;5.196;2022-10-17T09:47:54;16.90;99.90
20735;DHT22;10528;52.124;5.196;2022-10-17T09:50:31;17.00;99.90
20735;DHT22;10528;52.124;5.196;2022-10-17T09:53:13;17.00;99.90
20735;DHT22;10528;52.124;5.196;2022-10-17T09:55:52;17.00;99.90
20735;DHT22;10528;52.124;5.196;2022-10-17T09:58:22;17.10;99.90
20735;DHT22;10528;52.124;5.196;2022-10-17T10:01:21;17.10;99.90
20735;DHT22;10528;52.124;5.196;2022-10-17T10:04:12;17.10;99.90
20735;DHT22;10528;52.124;5.196;2022-10-17T10:07:00;17.10;99.90
20735;DHT22;10528;52.124;5.196;2022-10-17T10:09:31;17.10;99.90
20735;DHT22;10528;52.124;5.196;2022-10-17T10:12:14;17.10;99.90
20735;DHT22;10528;52.124;5.196;2022-10-17T10:14:49;17.10;99.90
20735;DHT22;10528;52.124;5.196;2022-10-17T10:17:38;17.10;99.90
20735;DHT22;10528;52.124;5.196;2022-10-17T10:20:26;17.10;99.90
20735;DHT22;10528;52.124;5.196;2022-10-17T10:23:11;17.10;99.90
20735;DHT22;10528;52.124;5.196;2022-10-17T10:25:56;17.10;99.90
20735;DHT22;10528;52.124;5.196;2022-10-17T10:28:28;17.10;99.90
20735;DHT22;10528;52.124;5.196;2022-10-17T10:30:59;17.10;99.90
20735;DHT22;10528;52.124;5.196;2022-10-17T10:33:31;17.10;99.90
20735;DHT22;10528;52.124;5.196;2022-10-17T10:36:03;17.10;99.90
20735;DHT22;10528;52.124;5.196;2022-10-17T10:38:32;17.10;99.90
20735;DHT22;10528;52.124;5.196;2022-10-17T10:41:03;17.20;99.90
20735;DHT22;10528;52.124;5.196;2022-10-17T10:43:36;17.20;99.90
20735;DHT22;10528;52.124;5.196;2022-10-17T10:46:20;17.20;99.90
20735;DHT22;10528;52.124;5.196;2022-10-17T10:48:56;17.20;99.90
20735;DHT22;10528;52.124;5.196;2022-10-17T10:51:43;17.30;99.90
20735;DHT22;10528;52.124;5.196;2022-10-17T10:54:21;17.20;99.90
20735;DHT22;10528;52.124;5.196;2022-10-17T10:56:55;17.20;99.90
20735;DHT22;10528;52.124;5.196;2022-10-17T11:02:09;17.20;99.90
20735;DHT22;10528;52.124;5.196;2022-10-17T11:05:02;17.10;99.90
20735;DHT22;10528;52.124;5.196;2022-10-17T11:07:35;17.10;99.90
20735;DHT22;10528;52.124;5.196;2022-10-17T11:10:30;17.10;99.90
20735;DHT22;10528;52.124;5.196;2022-10-17T11:13:09;17.10;99.90
20735;DHT22;10528;52.124;5.196;2022-10-17T11:19:02;17.10;99.90
20735;DHT22;10528;52.124;5.196;2022-10-17T11:24:24;17.20;99.90
20735;DHT22;10528;52.124;5.196;2022-10-17T11:26:59;17.20;99.90
20735;DHT22;10528;52.124;5.196;2022-10-17T11:29:32;17.20;99.90
20735;DHT22;10528;52.124;5.196;2022-10-17T11:32:22;17.30;99.90
20735;DHT22;10528;52.124;5.196;2022-10-17T11:35:02;17.30;99.90
20735;DHT22;10528;52.124;5.196;2022-10-17T11:37:46;17.30;99.90
20735;DHT22;10528;52.124;5.196;2022-10-17T11:40:26;17.30;99.90
20735;DHT22;10528;52.124;5.196;2022-10-17T11:43:02;17.30;99.90
20735;DHT22;10528;52.124;5.196;2022-10-17T11:45:42;17.30;99.90
20735;DHT22;10528;52.124;5.196;2022-10-17T11:48:36;17.20;99.90
20735;DHT22;10528;52.124;5.196;2022-10-17T11:51:09;17.20;99.90
20735;DHT22;10528;52.124;5.196;2022-10-17T11:54:10;17.30;99.90
20735;DHT22;10528;52.124;5.196;2022-10-17T12:08:48;17.20;99.90
20735;DHT22;10528;52.124;5.196;2022-10-17T12:11:50;17.20;99.90
20735;DHT22;10528;52.124;5.196;2022-10-17T12:14:42;17.20;99.90
20735;DHT22;10528;52.124;5.196;2022-10-17T12:22:53;17.20;99.90
20735;DHT22;10528;52.124;5.196;2022-10-17T12:25:23;17.20;99.90
20735;DHT22;10528;52.124;5.196;2022-10-17T12:33:48;17.20;99.90
20735;DHT22;10528;52.124;5.196;2022-10-17T12:38:49;17.10;99.90
20735;DHT22;10528;52.124;5.196;2022-10-17T12:47:27;17.00;99.90
20735;DHT22;10528;52.124;5.196;2022-10-17T12:50:06;17.00;99.90
20735;DHT22;10528;52.124;5.196;2022-10-17T12:53:15;16.90;99.90
20735;DHT22;10528;52.124;5.196;2022-10-17T12:55:45;16.90;99.90
20735;DHT22;10528;52.124;5.196;2022-10-17T12:58:14;16.90;99.90
20735;DHT22;10528;52.124;5.196;2022-10-17T13:00:43;16.90;99.90
20735;DHT22;10528;52.124;5.196;2022-10-17T13:03:42;16.80;99.90
20735;DHT22;10528;52.124;5.196;2022-10-17T13:06:19;16.80;99.90
20735;DHT22;10528;52.124;5.196;2022-10-17T13:08:55;16.90;99.90
20735;DHT22;10528;52.124;5.196;2022-10-17T13:11:31;17.00;99.90
20735;DHT22;10528;52.124;5.196;2022-10-17T13:14:07;17.00;99.90
20735;DHT22;10528;52.124;5.196;2022-10-17T13:16:51;17.10;99.90
20735;DHT22;10528;52.124;5.196;2022-10-17T13:19:22;17.20;99.90
20735;DHT22;10528;52.124;5.196;2022-10-17T13:24:32;17.30;99.90
20735;DHT22;10528;52.124;5.196;2022-10-17T13:27:02;17.40;99.90
20735;DHT22;10528;52.124;5.196;2022-10-17T13:29:30;17.40;99.90
20735;DHT22;10528;52.124;5.196;2022-10-17T13:32:00;17.30;99.90
20735;DHT22;10528;52.124;5.196;2022-10-17T13:34:31;17.30;99.90
20735;DHT22;10528;52.124;5.196;2022-10-17T13:37:09;17.30;99.90
20735;DHT22;10528;52.124;5.196;2022-10-17T13:39:44;17.40;99.90
20735;DHT22;10528;52.124;5.196;2022-10-17T13:42:37;17.40;99.90
20735;DHT22;10528;52.124;5.196;2022-10-17T13:48:04;17.40;99.90
20735;DHT22;10528;52.124;5.196;2022-10-17T13:50:38;17.40;99.90
20735;DHT22;10528;52.124;5.196;2022-10-17T13:53:25;17.40;99.90
20735;DHT22;10528;52.124;5.196;2022-10-17T13:56:03;17.40;99.90
20735;DHT22;10528;52.124;5.196;2022-10-17T13:59:01;17.50;99.90
20735;DHT22;10528;52.124;5.196;2022-10-17T14:01:44;17.40;99.90
20735;DHT22;10528;52.124;5.196;2022-10-17T14:04:15;17.40;99.90
20735;DHT22;10528;52.124;5.196;2022-10-17T14:06:46;17.50;99.90
20735;DHT22;10528;52.124;5.196;2022-10-17T14:09:22;17.50;99.90
20735;DHT22;10528;52.124;5.196;2022-10-17T14:12:01;17.50;99.90
20735;DHT22;10528;52.124;5.196;2022-10-17T14:14:37;17.50;99.90
20735;DHT22;10528;52.124;5.196;2022-10-17T14:17:27;17.60;99.90
20735;DHT22;10528;52.124;5.196;2022-10-17T14:19:58;17.60;99.90
20735;DHT22;10528;52.124;5.196;2022-10-17T14:22:51;17.60;99.90
20735;DHT22;10528;52.124;5.196;2022-10-17T14:25:39;17.70;99.90
20735;DHT22;10528;52.124;5.196;2022-10-17T14:30:47;17.70;99.90
20735;DHT22;10528;52.124;5.196;2022-10-17T14:33:27;17.80;99.90
20735;DHT22;10528;52.124;5.196;2022-10-17T14:35:57;17.80;99.90
20735;DHT22;10528;52.124;5.196;2022-10-17T14:38:27;17.80;99.90
20735;DHT22;10528;52.124;5.196;2022-10-17T14:40:57;17.90;99.90
20735;DHT22;10528;52.124;5.196;2022-10-17T14:43:59;17.90;99.90
20735;DHT22;10528;52.124;5.196;2022-10-17T14:46:28;17.90;99.90
20735;DHT22;10528;52.124;5.196;2022-10-17T14:49:16;17.90;99.90
20735;DHT22;10528;52.124;5.196;2022-10-17T14:54:46;17.90;99.90
20735;DHT22;10528;52.124;5.196;2022-10-17T14:59:59;17.90;99.90
20735;DHT22;10528;52.124;5.196;2022-10-17T15:02:28;17.80;99.90
20735;DHT22;10528;52.124;5.196;2022-10-17T15:04:56;17.80;99.90
20735;DHT22;10528;52.124;5.196;2022-10-17T15:07:23;17.80;99.90
20735;DHT22;10528;52.124;5.196;2022-10-17T15:09:51;17.80;99.90
20735;DHT22;10528;52.124;5.196;2022-10-17T15:12:21;17.80;99.90
20735;DHT22;10528;52.124;5.196;2022-10-17T15:14:50;17.80;99.90
20735;DHT22;10528;52.124;5.196;2022-10-17T15:17:22;17.80;99.90
20735;DHT22;10528;52.124;5.196;2022-10-17T15:19:51;17.80;99.90
20735;DHT22;10528;52.124;5.196;2022-10-17T15:22:18;17.80;99.90
20735;DHT22;10528;52.124;5.196;2022-10-17T15:24:45;17.70;99.90
20735;DHT22;10528;52.124;5.196;2022-10-17T15:27:25;17.70;99.90
20735;DHT22;10528;52.124;5.196;2022-10-17T15:29:53;17.80;99.90
20735;DHT22;10528;52.124;5.196;2022-10-17T15:32:20;17.80;99.90
20735;DHT22;10528;52.124;5.196;2022-10-17T15:34:47;17.80;99.90
20735;DHT22;10528;52.124;5.196;2022-10-17T15:37:24;17.80;99.90
20735;DHT22;10528;52.124;5.196;2022-10-17T15:39:52;17.80;99.90
20735;DHT22;10528;52.124;5.196;2022-10-17T15:42:22;17.70;99.90
20735;DHT22;10528;52.124;5.196;2022-10-17T15:44:53;17.70;99.90
20735;DHT22;10528;52.124;5.196;2022-10-17T15:47:28;17.60;99.90
20735;DHT22;10528;52.124;5.196;2022-10-17T15:49:59;17.50;99.90
20735;DHT22;10528;52.124;5.196;2022-10-17T15:52:27;17.40;99.90
20735;DHT22;10528;52.124;5.196;2022-10-17T15:54:54;17.40;99.90
20735;DHT22;10528;52.124;5.196;2022-10-17T15:57:27;17.30;99.90
20735;DHT22;10528;52.124;5.196;2022-10-17T15:59:58;17.30;99.90
20735;DHT22;10528;52.124;5.196;2022-10-17T16:02:25;17.30;99.90
20735;DHT22;10528;52.124;5.196;2022-10-17T16:04:52;17.30;99.90
20735;DHT22;10528;52.124;5.196;2022-10-17T16:07:19;17.20;99.90
20735;DHT22;10528;52.124;5.196;2022-10-17T16:09:47;17.20;99.90
20735;DHT22;10528;52.124;5.196;2022-10-17T16:12:21;17.20;99.90
20735;DHT22;10528;52.124;5.196;2022-10-17T16:14:55;17.20;99.90
20735;DHT22;10528;52.124;5.196;2022-10-17T16:17:22;17.10;99.90
20735;DHT22;10528;52.124;5.196;2022-10-17T16:19:49;17.10;99.90
20735;DHT22;10528;52.124;5.196;2022-10-17T16:22:36;17.10;99.90
20735;DHT22;10528;52.124;5.196;2022-10-17T16:25:05;17.10;99.90
20735;DHT22;10528;52.124;5.196;2022-10-17T16:27:36;17.10;99.90
20735;DHT22;10528;52.124;5.196;2022-10-17T16:30:05;17.10;99.90
20735;DHT22;10528;52.124;5.196;2022-10-17T16:32:33;17.10;99.90
20735;DHT22;10528;52.124;5.196;2022-10-17T16:35:00;17.10;99.90
20735;DHT22;10528;52.124;5.196;2022-10-17T16:37:27;17.10;99.90
20735;DHT22;10528;52.124;5.196;2022-10-17T16:39:54;17.10;99.90
20735;DHT22;10528;52.124;5.196;2022-10-17T16:42:21;17.00;99.90
20735;DHT22;10528;52.124;5.196;2022-10-17T16:44:49;17.00;99.90
20735;DHT22;10528;52.124;5.196;2022-10-17T16:47:17;17.00;99.90
20735;DHT22;10528;52.124;5.196;2022-10-17T16:49:44;17.00;99.90
20735;DHT22;10528;52.124;5.196;2022-10-17T16:52:11;16.90;99.90
20735;DHT22;10528;52.124;5.196;2022-10-17T16:54:38;16.90;99.90
20735;DHT22;10528;52.124;5.196;2022-10-17T16:57:05;16.90;99.90
20735;DHT22;10528;52.124;5.196;2022-10-17T16:59:32;16.80;99.90
20735;DHT22;10528;52.124;5.196;2022-10-17T17:01:59;16.80;99.90
20735;DHT22;10528;52.124;5.196;2022-10-17T17:04:26;16.80;99.90
20735;DHT22;10528;52.124;5.196;2022-10-17T17:06:53;16.80;99.90
20735;DHT22;10528;52.124;5.196;2022-10-17T17:09:19;16.70;99.90
20735;DHT22;10528;52.124;5.196;2022-10-17T17:11:46;16.70;99.90
20735;DHT22;10528;52.124;5.196;2022-10-17T17:14:13;16.70;99.90
20735;DHT22;10528;52.124;5.196;2022-10-17T17:16:40;16.70;99.90
20735;DHT22;10528;52.124;5.196;2022-10-17T17:19:13;16.70;99.90
20735;DHT22;10528;52.124;5.196;2022-10-17T17:21:43;16.70;99.90
20735;DHT22;10528;52.124;5.196;2022-10-17T17:24:17;16.60;99.90
20735;DHT22;10528;52.124;5.196;2022-10-17T17:26:50;16.60;99.90
20735;DHT22;10528;52.124;5.196;2022-10-17T17:29:20;16.60;99.90
20735;DHT22;10528;52.124;5.196;2022-10-17T17:31:48;16.60;99.90
20735;DHT22;10528;52.124;5.196;2022-10-17T17:34:15;16.60;99.90
20735;DHT22;10528;52.124;5.196;2022-10-17T17:36:44;16.50;99.90
20735;DHT22;10528;52.124;5.196;2022-10-17T17:39:12;16.60;99.90
20735;DHT22;10528;52.124;5.196;2022-10-17T17:41:40;16.60;99.90
20735;DHT22;10528;52.124;5.196;2022-10-17T17:44:11;16.60;99.90
20735;DHT22;10528;52.124;5.196;2022-10-17T17:46:42;16.60;99.90
20735;DHT22;10528;52.124;5.196;2022-10-17T17:49:10;16.60;99.90
20735;DHT22;10528;52.124;5.196;2022-10-17T17:51:38;16.60;99.90
20735;DHT22;10528;52.124;5.196;2022-10-17T17:54:07;16.50;99.90